ADDS METAR Data INFO
IDs: Format: Raw Decoded Include TAF

Data at: 0643 UTC 23 Feb 2018

KPQN 230635Z AUTO 25005KT 7SM OVC070 M05/M06 A3007 RMK AO2
KPQN 230615Z AUTO 24004KT 5SM -SN OVC070 M05/M06 A3008 RMK AO2
KPQN 230555Z AUTO 24003KT 7SM SCT007 OVC070 M05/M06 A3009 RMK AO2
KPQN 230535Z AUTO 21003KT 4SM -SN SCT007 OVC060 M05/M06 A3010 RMK AO2
KPQN 230515Z AUTO 00000KT 1 3/4SM -SN BKN005 BKN017 OVC031 M05/M06 A3010 RMK AO2
KPQN 230455Z AUTO 17004KT 5SM -SN SCT014 BKN032 OVC070 M05/M06 A3011 RMK AO2
KPQN 230435Z AUTO 15003KT 3SM -SN SCT060 OVC070 M05/M06 A3011 RMK AO2
KPQN 230415Z AUTO 14003KT 5SM -SN SCT001 BKN060 OVC070 M06/M06 A3012 RMK AO2
KPQN 230355Z AUTO 13004KT 3/4SM SN OVC001 M06/M07 A3012 RMK AO2
KPQN 230335Z AUTO 12004KT 1 1/4SM -SN OVC003 M06/M07 A3013 RMK AO2
KPQN 230315Z AUTO 00000KT 1SM SN OVC003 M06/M07 A3014 RMK AO2
KPQN 230255Z AUTO 10004KT 3/4SM SN OVC001 M06/M07 A3014 RMK AO2
KPQN 230235Z AUTO 00000KT 1 1/4SM -SN OVC003 M06/M07 A3015 RMK AO2
KPQN 230215Z AUTO 12004KT 3/4SM SN OVC005 M06/M07 A3017 RMK AO2
KPQN 230155Z AUTO 10006KT 1 1/4SM -SN OVC007 M06/M07 A3016 RMK AO2
KPQN 230135Z AUTO 10007KT 1 3/4SM -SN BKN007 OVC011 M06/M07 A3016 RMK AO2
KPQN 230115Z AUTO 09006KT 1 1/4SM -SN OVC005 M06/M07 A3016 RMK AO2
KPQN 230055Z AUTO 09007KT 1SM SN OVC005 M06/M07 A3016 RMK AO2
KPQN 230035Z AUTO 09006KT 1SM SN OVC003 M06/M07 A3016 RMK AO2
KPQN 230015Z AUTO 10008KT 1/2SM SN OVC005 M06/M07 A3018 RMK AO2
KPQN 222355Z AUTO 11010KT 1SM -SN BKN005 OVC011 M06/M07 A3018 RMK AO2
KPQN 222335Z AUTO 11009KT 1 1/4SM -SN SCT007 OVC016 M06/M07 A3018 RMK AO2
KPQN 222315Z AUTO 10008KT 3/4SM -SN BKN007 OVC016 M06/M07 A3019 RMK AO2
KPQN 222255Z AUTO 10010KT 1 1/4SM -SN OVC014 M06/M07 A3020 RMK AO2
KPQN 222235Z AUTO 12013G17KT 1 3/4SM -SN SCT009 OVC016 M06/M07 A3020 RMK AO2
KPQN 222215Z AUTO 11013KT 1SM -SN OVC005 M05/M07 A3020 RMK AO2
KPQN 222155Z AUTO 11012KT 1/2SM -SN OVC003 M05/M07 A3021 RMK AO2
KPQN 222135Z AUTO 11008KT 1/2SM -SN OVC003 M05/M06 A3023 RMK AO2
KPQN 222115Z AUTO 10011KT 1/2SM -SN OVC003 M05/M06 A3024 RMK AO2
KPQN 222055Z AUTO 10011KT 3/4SM -SN OVC005 M05/M07 A3025 RMK AO2
KPQN 222035Z AUTO 09006KT 1SM -SN OVC010 M04/M06 A3026 RMK AO2
KPQN 222015Z AUTO 10009KT 1 1/2SM -SN BKN008 BKN011 OVC017 M04/M07 A3028 RMK AO2
KPQN 221955Z AUTO 11007KT 3SM -SN SCT017 BKN025 OVC035 M04/M07 A3029 RMK AO2
KPQN 221935Z AUTO 10005KT 3SM -SN OVC037 M04/M07 A3031 RMK AO2
KPQN 221915Z AUTO 12007KT 7SM -SN OVC037 M04/M07 A3032 RMK AO2
KPQN 221855Z AUTO 11008KT 10SM SCT028 OVC035 M05/M07 A3033 RMK AO2
KPQN 221835Z AUTO 12008KT 10SM OVC037 M05/M07 A3034 RMK AO2
KPQN 221815Z AUTO 14007KT 10SM BKN041 M05/M08 A3038 RMK AO2
KPQN 221755Z AUTO 13007KT 10SM OVC043 M05/M08 A3038 RMK AO2
KPQN 221735Z AUTO 13009KT 10SM OVC047 M06/M08 A3038 RMK AO2
KPQN 221715Z AUTO 11008KT 10SM SCT006 BKN047 M06/M08 A3038 RMK AO2
KPQN 221655Z AUTO 12008KT 10SM BKN006 M06/M08 A3039 RMK AO2
KPQN 221635Z AUTO 12009KT 10SM SCT006 SCT023 BKN044 M07/M09 A3040 RMK AO2
KPQN 221615Z AUTO 11006KT 10SM BKN013 BKN023 OVC044 M07/M09 A3041 RMK AO2
KPQN 221555Z AUTO 12006KT 10SM OVC011 M08/M10 A3042 RMK AO2
KPQN 221535Z AUTO 12005KT 10SM SCT007 OVC011 M08/M10 A3043 RMK AO2
KPQN 221515Z AUTO 14004KT 10SM OVC009 M08/M10 A3044 RMK AO2
KPQN 221455Z AUTO 13003KT 10SM BKN009 OVC017 M09/M11 A3045 RMK AO2
KPQN 221435Z AUTO 11005KT 10SM OVC017 M09/M11 A3044 RMK AO2
KPQN 221415Z AUTO 13004KT 10SM SCT017 BKN022 OVC041 M09/M11 A3043 RMK AO2
KPQN 221355Z AUTO 12004KT 10SM SCT017 OVC039 M09/M12 A3043 RMK AO2
KPQN 221335Z AUTO 13006KT 7SM -SN BKN017 OVC024 M09/M12 A3043 RMK AO2
KPQN 221315Z AUTO 13005KT 7SM -SN SCT024 OVC055 M10/M12 A3043 RMK AO2
KPQN 221255Z AUTO 13006KT 10SM OVC055 M10/M12 A3042 RMK AO2
KPQN 221235Z AUTO 13007KT 10SM OVC055 M10/M12 A3042 RMK AO2
KPQN 221215Z AUTO 14008KT 10SM SCT026 OVC055 M10/M12 A3042 RMK AO2
KPQN 221155Z AUTO 14008KT 10SM OVC026 M10/M12 A3043 RMK AO2
KPQN 221135Z AUTO 14008KT 10SM OVC026 M10/M12 A3044 RMK AO2
KPQN 221115Z AUTO 14009KT 10SM BKN028 M11/M13 A3044 RMK AO2
KPQN 221055Z AUTO 14007KT 10SM BKN030 BKN065 M12/M14 A3045 RMK AO2
KPQN 221035Z AUTO 13005KT 10SM BKN031 BKN037 M13/M15 A3045 RMK AO2
KPQN 221015Z AUTO 13005KT 10SM SCT037 M13/M16 A3047 RMK AO2
KPQN 220955Z AUTO 00000KT 10SM CLR M13/M16 A3047 RMK AO2
KPQN 220935Z AUTO 00000KT 10SM CLR M13/M16 A3046 RMK AO2
KPQN 220915Z AUTO 11004KT 10SM CLR M13/M16 A3045 RMK AO2
KPQN 220855Z AUTO 13005KT 10SM CLR M13/M16 A3046 RMK AO2
KPQN 220835Z AUTO 13004KT 10SM CLR M12/M15 A3046 RMK AO2
KPQN 220815Z AUTO 18004KT 10SM CLR M12/M15 A3048 RMK AO2
KPQN 220755Z AUTO 16006KT 10SM CLR M12/M15 A3048 RMK AO2
KPQN 220735Z AUTO 16006KT 10SM CLR M12/M15 A3048 RMK AO2
KPQN 220715Z AUTO 17006KT 10SM CLR M12/M15 A3048 RMK AO2
KPQN 220655Z AUTO 17005KT 10SM CLR M13/M16 A3049 RMK AO2
KPQN 220635Z AUTO 18006KT 10SM SCT110 M13/M16 A3049 RMK AO2
KPQN 220615Z AUTO 15005KT 10SM CLR M14/M17 A3049 RMK AO2
KPQN 220555Z AUTO 14004KT 10SM CLR M14/M17 A3049 RMK AO2
KPQN 220535Z AUTO 14003KT 10SM SCT110 M13/M17 A3049 RMK AO2
KPQN 220515Z AUTO 14005KT 10SM SCT120 M12/M16 A3050 RMK AO2
KPQN 220455Z AUTO 16008KT 10SM BKN120 M12/M16 A3050 RMK AO2
KPQN 220435Z AUTO 15006KT 10SM SCT120 M13/M16 A3050 RMK AO2
KPQN 220415Z AUTO 13006KT 10SM OVC120 M13/M17 A3050 RMK AO2
KPQN 220355Z AUTO 13005KT 10SM BKN120 M13/M17 A3052 RMK AO2
KPQN 220035Z AUTO 16004KT 10SM SCT120 M12/M17 A3053 RMK AO2
KPQN 220015Z AUTO 00000KT 10SM CLR M12/M17 A3053 RMK AO2
KPQN 212355Z AUTO 00000KT 10SM CLR M12/M17 A3052 RMK AO2
KPQN 212335Z AUTO 00000KT 10SM CLR M11/M17 A3052 RMK AO2
KPQN 212315Z AUTO 17003KT 10SM CLR M11/M16 A3053 RMK AO2
KPQN 212255Z AUTO 18005KT 10SM CLR M11/M16 A3053 RMK AO2
KPQN 212235Z AUTO 20004KT 10SM CLR M11/M16 A3052 RMK AO2
KPQN 212215Z AUTO 21006KT 10SM CLR M11/M16 A3053 RMK AO2
KPQN 212155Z AUTO 20006KT 10SM CLR M11/M16 A3054 RMK AO2
KPQN 212135Z AUTO 22005KT 10SM CLR M11/M17 A3054 RMK AO2
KPQN 212115Z AUTO 23006KT 10SM CLR M11/M16 A3055 RMK AO2
KPQN 212055Z AUTO 22006KT 10SM CLR M11/M16 A3055 RMK AO2
KPQN 212035Z AUTO 23007KT 10SM CLR M11/M17 A3055 RMK AO2
KPQN 212015Z AUTO 24005KT 10SM CLR M11/M17 A3054 RMK AO2
KPQN 211955Z AUTO 21003KT 10SM CLR M11/M17 A3054 RMK AO2
KPQN 211935Z AUTO 25003KT 10SM CLR M11/M17 A3054 RMK AO2
KPQN 211915Z AUTO 26005KT 10SM CLR M12/M18 A3055 RMK AO2
KPQN 211855Z AUTO 26006KT 10SM CLR M13/M18 A3056 RMK AO2